createdAt,value
2022-09-26T00:00:37.291Z,301.57
2022-09-26T00:03:25.204Z,318.63
2022-09-26T00:06:13.375Z,289.13
2022-09-26T00:09:01.326Z,286.30
2022-09-26T00:11:49.543Z,310.50
2022-09-26T00:14:38.777Z,304.40
2022-09-26T00:17:26.757Z,300.87
2022-09-26T00:20:14.703Z,286.27
2022-09-26T00:23:02.632Z,278.67
2022-09-26T00:25:52.224Z,277.00
2022-09-26T00:28:40.149Z,300.53
2022-09-26T00:31:32.072Z,297.60
2022-09-26T00:34:20.854Z,296.07
2022-09-26T00:37:09.679Z,281.53
2022-09-26T00:39:57.576Z,311.03
2022-09-26T00:42:46.895Z,281.67
2022-09-26T00:45:34.870Z,296.70
2022-09-26T00:48:24.676Z,277.63
2022-09-26T00:51:13.144Z,276.97
2022-09-26T00:54:01.310Z,294.40
2022-09-26T00:56:54.005Z,283.50
2022-09-26T00:59:46.513Z,301.53
2022-09-26T01:02:34.780Z,308.93
2022-09-26T01:05:25.448Z,308.80
2022-09-26T01:08:15.858Z,310.97
2022-09-26T01:11:04.915Z,290.50
2022-09-26T01:13:55.618Z,295.03
2022-09-26T01:16:51.116Z,314.23
2022-09-26T01:19:49.314Z,310.43
2022-09-26T01:23:19.484Z,298.93
2022-09-26T01:26:41.655Z,275.67
2022-09-26T01:30:03.551Z,304.37
2022-09-26T01:33:32.024Z,305.83
2022-09-26T01:36:49.330Z,274.43
2022-09-26T01:39:47.678Z,281.67
2022-09-26T01:42:43.953Z,287.80
2022-09-26T01:45:43.084Z,291.93
2022-09-26T01:48:39.296Z,284.33
2022-09-26T01:51:33.947Z,289.57
2022-09-26T01:54:26.845Z,282.27
2022-09-26T01:57:20.230Z,283.60
2022-09-26T02:00:12.458Z,296.13
2022-09-26T02:03:07.326Z,313.60
2022-09-26T02:06:01.556Z,308.23
2022-09-26T02:08:54.016Z,293.80
2022-09-26T02:11:46.599Z,293.67
2022-09-26T02:14:41.761Z,290.73
2022-09-26T02:17:34.296Z,293.23
2022-09-26T02:20:27.896Z,308.00
2022-09-26T02:23:17.332Z,309.93
2022-09-26T02:26:06.453Z,289.00
2022-09-26T02:28:54.337Z,287.93
2022-09-26T02:31:49.588Z,298.97
2022-09-26T02:34:37.800Z,286.97
2022-09-26T02:37:28.770Z,303.53
2022-09-26T02:40:20.153Z,301.07
2022-09-26T02:43:53.069Z,285.57
2022-09-26T02:46:55.981Z,271.20
2022-09-26T02:50:08.838Z,277.20
2022-09-26T02:53:08.787Z,253.30
2022-09-26T02:56:14.245Z,273.67
2022-09-26T02:59:10.152Z,276.33
2022-09-26T03:02:09.732Z,287.60
2022-09-26T03:05:04.463Z,260.87
2022-09-26T03:07:57.500Z,275.13
2022-09-26T03:10:49.217Z,300.57
2022-09-26T03:13:40.356Z,272.67
2022-09-26T03:16:31.411Z,252.20
2022-09-26T03:19:27.332Z,285.90
2022-09-26T03:22:16.174Z,273.03
2022-09-26T03:25:06.291Z,267.67
2022-09-26T03:27:58.556Z,270.77
2022-09-26T03:30:48.599Z,287.40
2022-09-26T03:33:47.316Z,255.00
2022-09-26T03:36:35.649Z,290.67
2022-09-26T03:39:24.602Z,272.90
2022-09-26T03:42:21.389Z,268.27
2022-09-26T03:45:11.930Z,257.17
2022-09-26T03:48:20.064Z,234.60
2022-09-26T03:51:09.545Z,255.87
2022-09-26T03:53:57.391Z,252.33
2022-09-26T03:56:47.091Z,257.03
2022-09-26T03:59:35.072Z,273.73
2022-09-26T04:02:23.837Z,265.87
2022-09-26T04:05:27.495Z,271.50
2022-09-26T04:08:15.443Z,251.60
2022-09-26T04:11:06.580Z,249.27
2022-09-26T04:13:54.684Z,255.93
2022-09-26T04:16:48.303Z,252.50
2022-09-26T04:19:44.823Z,266.00
2022-09-26T04:22:34.060Z,247.30
2022-09-26T04:25:22.427Z,256.30
2022-09-26T04:28:11.179Z,261.57
2022-09-26T04:30:59.243Z,242.30
2022-09-26T04:33:47.108Z,247.93
2022-09-26T04:36:34.995Z,244.43
2022-09-26T04:39:24.756Z,261.77
2022-09-26T04:42:12.636Z,254.57
2022-09-26T04:45:00.786Z,280.13
2022-09-26T04:47:49.694Z,287.57
2022-09-26T04:50:46.272Z,255.17
2022-09-26T04:53:34.697Z,275.83
2022-09-26T04:56:33.295Z,290.77
2022-09-26T04:59:21.252Z,285.30
2022-09-26T05:02:20.893Z,279.03
2022-09-26T05:05:09.860Z,282.40
2022-09-26T05:07:58.042Z,297.40
2022-09-26T05:10:53.343Z,276.30
2022-09-26T05:13:43.616Z,300.53
2022-09-26T05:16:31.785Z,277.13
2022-09-26T05:19:22.072Z,292.37
2022-09-26T05:22:31.456Z,285.87
2022-09-26T05:25:36.586Z,285.43
2022-09-26T05:28:24.980Z,272.10
2022-09-26T05:31:14.332Z,283.30
2022-09-26T05:34:02.304Z,293.60
2022-09-26T05:36:51.780Z,284.90
2022-09-26T05:39:57.232Z,279.90
2022-09-26T05:42:45.378Z,282.27
2022-09-26T05:45:33.312Z,289.93
2022-09-26T05:48:24.894Z,280.43
2022-09-26T05:51:14.929Z,290.27
2022-09-26T05:54:04.934Z,293.03
2022-09-26T05:56:56.455Z,286.80
2022-09-26T05:59:59.486Z,273.60
2022-09-26T06:02:47.445Z,292.07
2022-09-26T06:05:45.319Z,297.23
2022-09-26T06:08:38.031Z,302.10
2022-09-26T06:11:44.049Z,288.63
2022-09-26T06:14:32.015Z,292.97
2022-09-26T06:17:20.293Z,319.03
2022-09-26T06:20:09.310Z,298.40
2022-09-26T06:22:59.128Z,292.10
2022-09-26T06:25:47.842Z,306.33
2022-09-26T06:28:36.719Z,314.47
2022-09-26T06:31:26.114Z,319.17
2022-09-26T06:34:32.530Z,325.03
2022-09-26T06:37:29.858Z,317.90
2022-09-26T06:40:19.174Z,310.77
2022-09-26T06:43:07.304Z,322.83
2022-09-26T06:46:15.272Z,277.30
2022-09-26T06:49:14.463Z,330.35
2022-09-26T06:52:07.762Z,312.88
2022-09-26T06:54:55.845Z,327.73
2022-09-26T06:57:45.402Z,322.35
2022-09-26T07:00:35.626Z,320.77
2022-09-26T07:03:45.172Z,349.13
2022-09-26T07:06:52.550Z,326.73
2022-09-26T07:09:40.988Z,330.73
2022-09-26T07:12:49.586Z,314.02
2022-09-26T07:15:37.873Z,313.58
2022-09-26T07:18:46.550Z,324.50
2022-09-26T07:21:53.345Z,290.55
2022-09-26T07:24:48.689Z,319.75
2022-09-26T07:27:37.005Z,316.80
2022-09-26T07:30:28.020Z,328.73
2022-09-26T07:33:20.969Z,342.35
2022-09-26T07:36:12.745Z,324.15
2022-09-26T07:39:02.108Z,323.90
2022-09-26T07:41:50.222Z,340.27
2022-09-26T07:45:20.465Z,326.92
2022-09-26T07:48:05.553Z,323.60
2022-09-26T07:51:12.258Z,299.27
2022-09-26T07:54:06.552Z,295.92
2022-09-26T07:57:16.987Z,323.55
2022-09-26T08:00:31.337Z,307.90
2022-09-26T08:03:29.565Z,314.23
2022-09-26T08:06:20.767Z,343.10
2022-09-26T08:09:09.038Z,322.38
2022-09-26T08:12:15.568Z,315.48
2022-09-26T08:15:29.730Z,326.48
2022-09-26T08:18:27.986Z,324.52
2022-09-26T08:21:16.438Z,340.00
2022-09-26T08:24:04.707Z,340.58
2022-09-26T08:26:55.672Z,361.67
2022-09-26T08:29:48.398Z,331.75
2022-09-26T08:32:37.179Z,339.85
2022-09-26T08:35:26.479Z,331.02
2022-09-26T08:38:40.735Z,332.35
2022-09-26T08:45:47.485Z,332.05
2022-09-26T08:49:16.014Z,317.38
2022-09-26T08:52:17.766Z,346.55
2022-09-26T08:55:14.179Z,346.88
2022-09-26T08:58:05.569Z,349.58
2022-09-26T09:00:59.961Z,347.48
2022-09-26T09:03:54.130Z,331.35
2022-09-26T09:06:43.527Z,308.33
2022-09-26T09:09:32.798Z,302.75
2022-09-26T09:13:03.122Z,310.25
2022-09-26T09:16:19.435Z,313.45
2022-09-26T09:19:31.280Z,302.55
2022-09-26T09:23:08.419Z,328.08
2022-09-26T09:29:52.529Z,277.83
2022-09-26T09:33:04.122Z,302.10
2022-09-26T09:36:09.693Z,310.13
2022-09-26T09:39:07.896Z,321.40
2022-09-26T09:42:32.106Z,299.83
2022-09-26T09:45:28.894Z,317.48
2022-09-26T09:48:17.176Z,348.15
2022-09-26T09:51:19.773Z,339.90
2022-09-26T09:54:22.677Z,319.67
2022-09-26T09:57:34.634Z,342.95
2022-09-26T10:00:24.317Z,320.23
2022-09-26T10:03:27.726Z,331.40
2022-09-26T10:06:45.475Z,339.08
2022-09-26T10:09:35.280Z,330.67
2022-09-26T10:13:07.648Z,302.52
2022-09-26T10:16:15.693Z,320.67
2022-09-26T10:19:17.688Z,329.17
2022-09-26T10:22:09.332Z,331.15
2022-09-26T10:25:02.762Z,321.80
2022-09-26T10:27:55.060Z,322.77
2022-09-26T10:30:50.030Z,336.83
2022-09-26T10:33:45.942Z,307.35
2022-09-26T10:36:37.301Z,313.38
2022-09-26T10:39:43.724Z,325.52
2022-09-26T10:42:32.529Z,310.33
2022-09-26T10:45:29.153Z,329.45
2022-09-26T10:48:47.137Z,312.77
2022-09-26T10:52:01.541Z,324.95
2022-09-26T10:54:57.933Z,311.08
2022-09-26T10:57:50.578Z,343.65
2022-09-26T11:00:44.217Z,348.58
2022-09-26T11:03:44.170Z,332.95
2022-09-26T11:06:45.526Z,328.65
2022-09-26T11:09:58.945Z,339.55
2022-09-26T11:13:03.322Z,338.17
2022-09-26T11:16:01.212Z,327.95
2022-09-26T11:18:58.341Z,347.77
2022-09-26T11:21:52.201Z,332.10
2022-09-26T11:24:47.823Z,310.73
2022-09-26T11:27:43.821Z,308.38
2022-09-26T11:30:40.612Z,305.17
2022-09-26T11:33:30.626Z,322.88
2022-09-26T11:37:02.380Z,286.25
2022-09-26T11:40:09.532Z,282.35
2022-09-26T11:43:16.046Z,292.15
2022-09-26T11:46:27.241Z,309.77
2022-09-26T11:49:46.019Z,300.92
2022-09-26T11:53:04.778Z,305.58
2022-09-26T11:56:08.200Z,310.75
2022-09-26T11:59:04.632Z,289.75
2022-09-26T12:02:03.541Z,302.55
2022-09-26T12:05:03.863Z,309.77
2022-09-26T12:08:05.687Z,300.02
2022-09-26T12:11:04.567Z,304.05
2022-09-26T12:14:00.073Z,294.48
2022-09-26T12:16:55.079Z,293.42
2022-09-26T12:19:52.285Z,319.40
2022-09-26T12:22:47.871Z,302.10
2022-09-26T12:25:52.633Z,299.60
2022-09-26T12:28:53.688Z,283.10
2022-09-26T12:32:01.414Z,301.67
2022-09-26T12:35:19.716Z,291.05
2022-09-26T12:38:28.333Z,281.25
2022-09-26T12:41:45.480Z,264.80
2022-09-26T12:44:44.209Z,273.27
2022-09-26T12:47:53.473Z,266.63
2022-09-26T12:50:50.255Z,250.90
2022-09-26T12:53:59.162Z,268.42
2022-09-26T12:56:54.645Z,259.27
2022-09-26T12:59:59.749Z,260.65
2022-09-26T13:03:09.692Z,259.30
2022-09-26T13:06:27.311Z,264.58
2022-09-26T13:09:29.477Z,257.25
2022-09-26T13:12:33.405Z,287.85
2022-09-26T13:15:30.380Z,288.85
2022-09-26T13:18:26.672Z,257.02
2022-09-26T13:21:19.918Z,284.40
2022-09-26T13:24:14.049Z,290.20
2022-09-26T13:27:12.130Z,278.73
2022-09-26T13:30:05.474Z,256.83
2022-09-26T13:33:01.317Z,280.63
2022-09-26T13:35:52.835Z,272.27
2022-09-26T13:38:52.946Z,281.92
2022-09-26T13:41:47.568Z,304.17
2022-09-26T13:44:53.766Z,287.98
2022-09-26T13:47:53.689Z,295.85
2022-09-26T13:50:44.815Z,285.83
2022-09-26T13:53:37.906Z,286.80
2022-09-26T13:56:31.208Z,278.90
2022-09-26T13:59:32.411Z,270.58
2022-09-26T14:02:28.382Z,284.15
2022-09-26T14:05:49.790Z,298.58
2022-09-26T14:09:15.315Z,281.35
2022-09-26T14:12:31.786Z,301.15
2022-09-26T14:15:24.031Z,290.70
2022-09-26T14:18:26.373Z,305.33
2022-09-26T14:21:32.835Z,301.65
2022-09-26T14:24:33.576Z,296.60
2022-09-26T14:27:28.901Z,288.38
2022-09-26T14:30:29.290Z,294.05
2022-09-26T14:33:17.691Z,293.38
2022-09-26T14:36:25.346Z,291.83
2022-09-26T14:39:26.879Z,284.35
2022-09-26T14:42:23.814Z,288.10
2022-09-26T14:45:23.042Z,284.50
2022-09-26T14:48:20.309Z,292.88
2022-09-26T14:51:26.188Z,282.02
2022-09-26T14:54:22.840Z,278.25
2022-09-26T14:57:22.037Z,284.48
2022-09-26T15:00:40.377Z,287.60
2022-09-26T15:03:29.598Z,272.92
2022-09-26T15:06:17.929Z,298.17
2022-09-26T15:09:10.977Z,290.67
2022-09-26T15:12:00.842Z,295.17
2022-09-26T15:14:53.457Z,296.45
2022-09-26T15:17:49.399Z,275.05
2022-09-26T15:20:41.744Z,273.13
2022-09-26T15:23:33.258Z,245.30
2022-09-26T15:26:24.415Z,279.25
2022-09-26T15:29:14.530Z,272.25
2022-09-26T15:32:03.224Z,250.32
2022-09-26T15:34:53.283Z,286.33
2022-09-26T15:37:41.317Z,285.92
2022-09-26T15:40:31.173Z,282.05
2022-09-26T15:43:20.609Z,285.67
2022-09-26T15:46:23.356Z,269.55
2022-09-26T15:49:13.926Z,284.98
2022-09-26T15:52:03.635Z,293.77
2022-09-26T15:54:52.460Z,325.05
2022-09-26T15:57:40.737Z,316.52
2022-09-26T16:00:33.021Z,315.02
2022-09-26T16:03:39.774Z,319.45
2022-09-26T16:06:31.038Z,307.77
2022-09-26T16:09:24.326Z,318.60
2022-09-26T16:12:20.114Z,327.75
2022-09-26T16:15:17.506Z,329.58
2022-09-26T16:18:05.734Z,316.02
2022-09-26T16:21:15.965Z,303.98
2022-09-26T16:24:27.967Z,323.50
2022-09-26T16:27:24.644Z,324.98
2022-09-26T16:30:42.766Z,338.85
2022-09-26T16:33:32.842Z,329.27
2022-09-26T16:36:23.374Z,336.73
2022-09-26T16:39:20.989Z,323.77
2022-09-26T16:42:18.520Z,315.13
2022-09-26T16:45:07.613Z,318.40
2022-09-26T16:47:55.889Z,320.98
2022-09-26T16:50:43.968Z,307.30
2022-09-26T16:53:32.291Z,319.55
2022-09-26T16:56:23.741Z,305.42
2022-09-26T16:59:18.441Z,316.75
2022-09-26T17:02:11.012Z,310.48
2022-09-26T17:04:59.068Z,320.60
2022-09-26T17:07:49.639Z,336.38
2022-09-26T17:10:38.917Z,326.98
2022-09-26T17:13:30.592Z,312.25
2022-09-26T17:16:20.458Z,334.13
2022-09-26T17:19:11.969Z,320.10
2022-09-26T17:22:01.413Z,322.30
2022-09-26T17:24:51.040Z,327.80
2022-09-26T17:27:40.186Z,348.88
2022-09-26T17:30:28.536Z,337.77
2022-09-26T17:33:18.009Z,334.20
2022-09-26T17:36:10.581Z,328.70
2022-09-26T17:38:59.354Z,321.83
2022-09-26T17:41:48.075Z,343.55
2022-09-26T17:44:36.943Z,332.73
2022-09-26T17:47:25.391Z,323.55
2022-09-26T17:50:22.089Z,342.98
2022-09-26T17:53:20.799Z,334.17
2022-09-26T17:56:08.869Z,335.63
2022-09-26T17:58:56.935Z,337.95
2022-09-26T18:01:45.581Z,346.15
2022-09-26T18:04:34.539Z,338.58
2022-09-26T18:07:24.274Z,333.13
2022-09-26T18:10:19.324Z,325.38
2022-09-26T18:13:13.583Z,342.00
2022-09-26T18:16:02.203Z,320.40
2022-09-26T18:18:50.660Z,312.88
2022-09-26T18:21:40.010Z,322.50
2022-09-26T18:24:30.578Z,304.63
2022-09-26T18:27:18.757Z,321.65
2022-09-26T18:30:08.150Z,315.33
2022-09-26T18:32:56.720Z,307.10
2022-09-26T18:35:45.559Z,315.33
2022-09-26T18:38:35.322Z,325.88
2022-09-26T18:41:26.867Z,311.15
2022-09-26T18:44:18.148Z,334.27
2022-09-26T18:47:13.963Z,316.10
2022-09-26T18:50:02.627Z,339.23
2022-09-26T18:52:51.990Z,351.05
2022-09-26T18:55:57.665Z,334.02
2022-09-26T18:58:47.703Z,338.25
2022-09-26T19:01:38.212Z,339.52
2022-09-26T19:04:27.144Z,328.80
2022-09-26T19:07:21.093Z,346.35
2022-09-26T19:10:15.122Z,325.80
2022-09-26T19:13:03.744Z,337.17
2022-09-26T19:15:53.528Z,339.50
2022-09-26T19:18:41.987Z,340.02
2022-09-26T19:21:34.173Z,351.75
2022-09-26T19:24:28.807Z,355.15
2022-09-26T19:27:20.105Z,334.73
2022-09-26T19:30:15.068Z,331.17
2022-09-26T19:33:04.566Z,339.70
2022-09-26T19:35:53.042Z,340.48
2022-09-26T19:38:41.089Z,341.55
2022-09-26T19:41:29.138Z,363.38
2022-09-26T19:44:17.231Z,348.75
2022-09-26T19:47:05.387Z,351.63
2022-09-26T19:49:54.814Z,342.30
2022-09-26T19:52:42.949Z,336.92
2022-09-26T19:55:32.407Z,334.20
2022-09-26T19:58:22.749Z,326.00
2022-09-26T20:01:16.298Z,356.77
2022-09-26T20:04:04.352Z,344.47
2022-09-26T20:06:53.739Z,319.17
2022-09-26T20:09:42.061Z,325.17
2022-09-26T20:12:30.198Z,310.80
2022-09-26T20:15:20.198Z,321.77
2022-09-26T20:18:09.134Z,326.97
2022-09-26T20:20:57.984Z,318.50
2022-09-26T20:23:47.918Z,326.90
2022-09-26T20:26:36.088Z,330.03
2022-09-26T20:29:24.341Z,310.07
2022-09-26T20:32:15.494Z,310.37
2022-09-26T20:35:04.333Z,313.47
2022-09-26T20:37:53.340Z,307.03
2022-09-26T20:40:42.988Z,324.23
2022-09-26T20:43:34.426Z,302.07
2022-09-26T20:46:32.189Z,308.07
2022-09-26T20:49:24.390Z,305.70
2022-09-26T20:52:19.550Z,325.43
2022-09-26T20:55:08.335Z,303.03
2022-09-26T20:57:57.738Z,284.23
2022-09-26T21:00:46.146Z,312.53
2022-09-26T21:03:34.200Z,280.80
2022-09-26T21:06:24.870Z,299.83
2022-09-26T21:09:18.690Z,282.60
2022-09-26T21:12:12.834Z,298.67
2022-09-26T21:15:02.239Z,309.00
2022-09-26T21:17:52.081Z,309.40
2022-09-26T21:20:40.102Z,299.97
2022-09-26T21:23:51.755Z,304.03
2022-09-26T21:26:39.756Z,306.93
2022-09-26T21:29:28.302Z,319.37
2022-09-26T21:32:21.855Z,297.77
2022-09-26T21:35:10.813Z,306.77
2022-09-26T21:38:01.732Z,306.47
2022-09-26T21:40:54.013Z,315.17
2022-09-26T21:43:46.091Z,325.80
2022-09-26T21:46:34.109Z,314.73
2022-09-26T21:49:23.435Z,318.73
2022-09-26T21:52:17.441Z,310.27
2022-09-26T21:55:07.285Z,306.87
2022-09-26T21:57:56.008Z,297.43
2022-09-26T22:00:43.992Z,342.67
2022-09-26T22:03:32.041Z,312.47
2022-09-26T22:06:21.525Z,303.20
2022-09-26T22:09:10.519Z,315.60
2022-09-26T22:11:59.154Z,303.30
2022-09-26T22:14:47.236Z,292.83
2022-09-26T22:17:35.284Z,315.50
2022-09-26T22:20:23.390Z,313.20
2022-09-26T22:23:12.876Z,318.50
2022-09-26T22:26:01.338Z,333.80
2022-09-26T22:28:49.929Z,331.43
2022-09-26T22:31:38.148Z,316.13
2022-09-26T22:34:26.845Z,323.60
2022-09-26T22:37:14.990Z,325.53
2022-09-26T22:40:05.293Z,315.67
2022-09-26T22:42:53.329Z,330.77
2022-09-26T22:45:41.396Z,327.17
2022-09-26T22:48:31.366Z,327.87
2022-09-26T22:51:19.518Z,321.90
2022-09-26T22:54:07.824Z,343.27
2022-09-26T22:56:57.386Z,321.23
2022-09-26T22:59:45.485Z,327.73
2022-09-26T23:02:33.636Z,334.63
2022-09-26T23:05:21.899Z,335.00
2022-09-26T23:08:10.266Z,326.63
2022-09-26T23:10:58.313Z,325.90
2022-09-26T23:13:48.053Z,330.80
2022-09-26T23:16:36.226Z,332.80
2022-09-26T23:19:24.280Z,333.07
2022-09-26T23:22:13.517Z,315.67
2022-09-26T23:25:01.534Z,333.90
2022-09-26T23:27:50.295Z,320.13
2022-09-26T23:30:39.753Z,330.73
2022-09-26T23:33:27.843Z,334.33
2022-09-26T23:36:16.189Z,340.67
2022-09-26T23:39:04.422Z,336.80
2022-09-26T23:41:52.589Z,322.97
2022-09-26T23:44:40.639Z,319.90
2022-09-26T23:47:30.031Z,315.10
2022-09-26T23:50:18.239Z,332.27
2022-09-26T23:53:06.867Z,327.07
2022-09-26T23:56:04.411Z,318.97
2022-09-26T23:58:52.511Z,328.73
